Time;durP1;ratioP1;P1;durP2;ratioP2;P2;SDS_P1;SDS_P2;PMS_P1;PMS_P2;Temp;Humidity;BMP_temperature;BMP_pressure;BME280_temperature;BME280_humidity;BME280_pressure;Samples;Min_cycle;Max_cycle;Signal;HPM_P1;HPM_P2
2022/09/07 00:00:38;;;;;;;6.80;6.20;;;19.30;99.90;;;;;;5107831;28;20392;-79
2022/09/07 00:03:22;;;;;;;5.80;5.40;;;19.20;99.90;;;;;;5107338;28;20427;-79
2022/09/07 00:06:10;;;;;;;9.33;4.77;;;19.20;99.90;;;;;;5107802;28;20388;-79
2022/09/07 00:08:54;;;;;;;7.23;6.53;;;19.20;99.90;;;;;;5106736;28;20457;-79
2022/09/07 00:11:39;;;;;;;7.63;6.77;;;19.20;99.90;;;;;;5107562;28;20407;-79
2022/09/07 00:14:23;;;;;;;6.10;5.50;;;19.30;99.90;;;;;;5101411;28;20461;-82
2022/09/07 00:17:08;;;;;;;6.70;5.93;;;19.30;99.90;;;;;;5100066;28;20532;-82
2022/09/07 00:19:54;;;;;;;14.43;6.37;;;19.40;99.90;;;;;;5099230;28;20385;-82
2022/09/07 00:22:38;;;;;;;6.83;6.13;;;19.40;99.90;;;;;;5099238;28;20388;-82
2022/09/07 00:25:23;;;;;;;6.30;5.70;;;19.40;99.90;;;;;;5100341;28;20923;-81
2022/09/07 00:28:08;;;;;;;6.80;5.93;;;19.50;99.90;;;;;;5100335;28;20384;-82
2022/09/07 00:30:52;;;;;;;6.27;5.63;;;19.50;99.90;;;;;;5100589;28;20388;-82
2022/09/07 00:33:37;;;;;;;7.77;5.53;;;19.70;99.90;;;;;;5100539;28;20417;-82
2022/09/07 00:36:22;;;;;;;11.73;6.00;;;19.70;99.90;;;;;;5099700;28;20388;-81
2022/09/07 00:39:07;;;;;;;7.83;5.40;;;19.80;99.90;;;;;;5100305;28;20419;-81
2022/09/07 00:41:51;;;;;;;7.40;5.50;;;20.10;99.90;;;;;;5099928;28;20404;-82
2022/09/07 00:44:59;;;;;;;7.07;6.27;;;20.00;99.90;;;;;;5099697;28;20696;-82
2022/09/07 00:47:58;;;;;;;8.63;6.43;;;20.10;99.90;;;;;;5098942;28;20388;-82
2022/09/07 00:50:49;;;;;;;7.80;6.17;;;20.00;99.90;;;;;;5099373;28;20385;-82
2022/09/07 00:53:38;;;;;;;6.33;5.60;;;19.80;99.90;;;;;;5098899;28;20778;-82
2022/09/07 00:56:27;;;;;;;7.67;6.87;;;19.90;99.90;;;;;;5099291;28;20447;-82
2022/09/07 00:59:15;;;;;;;12.77;5.83;;;19.90;99.90;;;;;;5098983;28;20416;-82
2022/09/07 01:02:01;;;;;;;6.50;5.90;;;20.00;99.90;;;;;;5098938;28;20465;-82
2022/09/07 01:04:50;;;;;;;6.67;5.90;;;20.10;99.90;;;;;;5100208;28;20529;-82
2022/09/07 01:07:35;;;;;;;7.03;5.90;;;20.20;99.90;;;;;;5099121;28;20376;-82
2022/09/07 01:10:23;;;;;;;10.20;6.57;;;20.20;99.90;;;;;;5099837;28;20384;-82
2022/09/07 01:13:07;;;;;;;13.53;7.30;;;20.20;99.90;;;;;;5099554;28;20420;-84
2022/09/07 01:16:05;;;;;;;8.80;6.27;;;20.10;99.90;;;;;;5099426;28;20484;-82
2022/09/07 01:19:04;;;;;;;9.87;7.23;;;20.00;99.90;;;;;;5099388;28;20510;-82
2022/09/07 01:22:17;;;;;;;6.67;6.07;;;19.90;99.90;;;;;;5099593;28;20377;-82
2022/09/07 01:25:38;;;;;;;9.50;6.33;;;19.70;99.90;;;;;;5099218;28;20456;-82
2022/09/07 01:28:26;;;;;;;9.17;5.93;;;19.60;99.90;;;;;;5098795;28;20380;-82
2022/09/07 01:31:31;;;;;;;7.10;6.40;;;19.60;99.90;;;;;;5098188;28;20470;-82
2022/09/07 01:34:22;;;;;;;5.90;5.40;;;19.60;99.90;;;;;;5114040;28;20376;-80
2022/09/07 01:37:21;;;;;;;6.10;5.60;;;19.80;99.90;;;;;;5106464;28;20435;-82
2022/09/07 01:40:16;;;;;;;5.93;5.43;;;19.90;99.90;;;;;;5098985;28;20380;-82
2022/09/07 01:43:10;;;;;;;6.77;5.90;;;19.90;99.90;;;;;;5098373;28;20426;-82
2022/09/07 01:46:00;;;;;;;7.07;5.60;;;19.90;99.90;;;;;;5098662;28;20375;-82
2022/09/07 01:48:47;;;;;;;6.70;6.10;;;19.90;99.90;;;;;;5097496;28;20381;-82
2022/09/07 01:51:34;;;;;;;5.50;5.00;;;19.90;99.90;;;;;;5098253;28;20458;-82
2022/09/07 01:54:29;;;;;;;6.90;6.20;;;19.80;99.90;;;;;;5099740;28;20403;-81
2022/09/07 01:57:22;;;;;;;7.23;6.60;;;19.80;99.90;;;;;;5098529;28;20456;-82
2022/09/07 02:00:11;;;;;;;8.17;7.37;;;19.60;99.90;;;;;;5097590;28;20452;-82
2022/09/07 02:03:09;;;;;;;7.20;6.60;;;19.50;99.90;;;;;;5096668;28;20887;-82
2022/09/07 02:06:00;;;;;;;6.47;5.53;;;19.50;99.90;;;;;;5096968;28;20375;-82
2022/09/07 02:08:59;;;;;;;13.27;6.13;;;19.20;99.90;;;;;;5097965;28;20384;-82
2022/09/07 02:11:46;;;;;;;15.37;5.97;;;19.00;99.90;;;;;;5098338;28;20381;-82
2022/09/07 02:14:41;;;;;;;10.30;6.53;;;18.80;99.90;;;;;;5098158;28;20438;-82
2022/09/07 02:17:32;;;;;;;7.90;7.10;;;18.90;99.90;;;;;;5097999;28;20513;-82
2022/09/07 02:20:25;;;;;;;7.07;6.33;;;18.90;99.90;;;;;;5097826;28;20487;-81
2022/09/07 02:23:19;;;;;;;7.07;6.37;;;18.80;99.90;;;;;;5098253;28;20790;-82
2022/09/07 02:26:09;;;;;;;6.53;5.90;;;18.70;99.90;;;;;;5097659;28;20430;-82
2022/09/07 02:28:54;;;;;;;7.83;7.10;;;18.60;99.90;;;;;;5097818;28;20384;-82
2022/09/07 02:31:38;;;;;;;9.00;5.97;;;18.50;99.90;;;;;;5097950;28;20518;-82
2022/09/07 02:34:23;;;;;;;10.60;6.33;;;18.60;99.90;;;;;;5097454;28;20399;-81
2022/09/07 02:37:09;;;;;;;7.93;7.03;;;18.60;99.90;;;;;;5096189;28;20828;-82
2022/09/07 02:39:55;;;;;;;7.17;6.30;;;18.50;99.90;;;;;;5097138;28;20466;-81
2022/09/07 02:42:40;;;;;;;8.67;7.27;;;18.60;99.90;;;;;;5097372;28;20431;-81
2022/09/07 02:45:29;;;;;;;6.97;6.27;;;18.60;99.90;;;;;;5096447;28;20456;-81
2022/09/07 02:48:28;;;;;;;6.97;6.23;;;18.50;99.90;;;;;;5097954;28;20438;-82
2022/09/07 02:51:31;;;;;;;6.87;6.03;;;18.60;99.90;;;;;;5096211;28;20467;-82
2022/09/07 02:54:42;;;;;;;10.17;5.63;;;18.50;99.90;;;;;;5100681;28;20462;-79
2022/09/07 02:57:53;;;;;;;6.67;5.60;;;18.50;99.90;;;;;;5111404;28;20463;-79
2022/09/07 03:01:15;;;;;;;6.67;6.07;;;18.40;99.90;;;;;;5110892;28;20387;-79
2022/09/07 03:04:11;;;;;;;8.30;6.63;;;18.50;99.90;;;;;;5110013;28;20796;-79
2022/09/07 03:07:06;;;;;;;9.03;6.80;;;18.60;99.90;;;;;;5110014;28;20445;-79
2022/09/07 03:09:53;;;;;;;6.70;6.10;;;18.60;99.90;;;;;;5110691;28;20414;-79
2022/09/07 03:12:43;;;;;;;9.07;6.77;;;18.60;99.90;;;;;;5109966;28;20396;-79
2022/09/07 03:15:28;;;;;;;8.33;5.90;;;18.70;99.90;;;;;;5096676;28;20825;-81
2022/09/07 03:18:13;;;;;;;6.40;5.67;;;18.90;99.90;;;;;;5096559;28;20467;-81
2022/09/07 03:20:58;;;;;;;7.30;6.70;;;19.10;99.90;;;;;;5097413;28;20384;-81
2022/09/07 03:23:43;;;;;;;7.57;5.53;;;19.10;99.90;;;;;;5097593;28;20887;-81
2022/09/07 03:26:28;;;;;;;8.80;7.90;;;19.30;99.90;;;;;;5097139;28;20737;-82
2022/09/07 03:29:14;;;;;;;7.00;6.33;;;19.30;99.90;;;;;;5097136;28;20542;-81
2022/09/07 03:31:58;;;;;;;7.00;6.30;;;19.30;99.90;;;;;;5097129;28;20384;-81
2022/09/07 03:34:43;;;;;;;7.07;6.20;;;19.20;99.90;;;;;;5097065;28;20395;-82
2022/09/07 03:37:28;;;;;;;8.87;6.77;;;19.10;99.90;;;;;;5096765;28;20458;-82
2022/09/07 03:40:13;;;;;;;8.77;6.80;;;18.80;99.90;;;;;;5097343;28;20423;-81
2022/09/07 03:42:58;;;;;;;6.63;6.10;;;18.50;99.90;;;;;;5096113;28;20480;-81
2022/09/07 03:45:43;;;;;;;7.50;6.90;;;18.20;99.90;;;;;;5095810;28;20380;-81
2022/09/07 03:48:32;;;;;;;7.03;6.43;;;18.10;99.90;;;;;;5093923;28;20399;-81
2022/09/07 03:51:19;;;;;;;6.83;6.10;;;17.90;99.90;;;;;;5097722;28;20407;-81
2022/09/07 03:54:03;;;;;;;9.47;7.00;;;17.70;99.90;;;;;;5099614;28;20411;-81
2022/09/07 03:56:48;;;;;;;9.50;6.90;;;17.60;99.90;;;;;;5100964;28;20451;-81
2022/09/07 03:59:32;;;;;;;7.83;7.10;;;17.40;99.90;;;;;;5100972;28;20384;-81
2022/09/07 04:02:17;;;;;;;10.77;6.93;;;17.30;99.90;;;;;;5101394;28;20422;-81
2022/09/07 04:05:02;;;;;;;7.50;6.80;;;17.30;99.90;;;;;;5101104;28;20479;-81
2022/09/07 04:07:47;;;;;;;23.03;7.80;;;17.40;99.90;;;;;;5100386;28;20513;-81
2022/09/07 04:10:37;;;;;;;10.57;7.50;;;17.60;99.90;;;;;;5102072;28;20419;-81
2022/09/07 04:13:21;;;;;;;12.13;7.70;;;17.80;99.90;;;;;;5109228;28;20399;-79
2022/09/07 04:16:12;;;;;;;7.90;7.20;;;18.00;99.90;;;;;;5110314;28;20429;-79
2022/09/07 04:18:57;;;;;;;6.73;6.23;;;18.00;99.90;;;;;;5108363;28;20177;-81
2022/09/07 04:21:45;;;;;;;8.07;7.37;;;17.80;99.90;;;;;;5102629;28;20872;-80
2022/09/07 04:24:30;;;;;;;8.20;6.70;;;17.90;99.90;;;;;;5100264;28;20384;-81
2022/09/07 04:27:15;;;;;;;9.80;7.53;;;17.80;99.90;;;;;;5100469;28;20375;-81
2022/09/07 04:29:59;;;;;;;8.67;7.90;;;17.80;99.90;;;;;;5099942;28;20388;-80
2022/09/07 04:32:46;;;;;;;7.00;6.33;;;17.90;99.90;;;;;;5100446;28;20376;-81
2022/09/07 04:35:30;;;;;;;10.50;7.10;;;18.10;99.90;;;;;;5098638;28;20380;-80
2022/09/07 04:38:15;;;;;;;6.93;6.43;;;18.30;99.90;;;;;;5099644;28;20458;-81
2022/09/07 04:41:05;;;;;;;7.57;6.87;;;18.30;99.90;;;;;;5100197;28;20748;-82
2022/09/07 04:43:54;;;;;;;7.40;6.70;;;18.30;99.90;;;;;;5099103;28;20397;-82
2022/09/07 04:46:38;;;;;;;7.17;6.40;;;18.30;99.90;;;;;;5099431;28;20399;-82
2022/09/07 04:49:23;;;;;;;7.30;6.47;;;18.20;99.90;;;;;;5099139;28;20387;-82
2022/09/07 04:52:07;;;;;;;8.07;7.30;;;18.20;99.90;;;;;;5096333;28;20466;-81
2022/09/07 04:54:52;;;;;;;10.37;6.00;;;18.30;99.90;;;;;;5082925;28;20467;-81
2022/09/07 04:57:37;;;;;;;7.10;6.40;;;18.40;99.90;;;;;;5081839;28;20468;-82
2022/09/07 05:00:22;;;;;;;7.70;6.90;;;18.70;99.90;;;;;;5094917;28;20450;-82
2022/09/07 05:03:06;;;;;;;11.97;9.10;;;18.80;99.90;;;;;;5095373;28;20460;-81
2022/09/07 05:05:51;;;;;;;7.37;6.63;;;18.90;99.90;;;;;;5094296;28;20849;-82
2022/09/07 05:08:38;;;;;;;15.13;10.03;;;19.00;99.90;;;;;;5078823;28;20407;-82
2022/09/07 05:11:23;;;;;;;9.57;7.50;;;19.00;99.90;;;;;;5078818;28;20904;-82
2022/09/07 05:14:09;;;;;;;7.03;6.40;;;19.10;99.90;;;;;;5088038;28;20462;-82
2022/09/07 05:16:53;;;;;;;11.07;8.13;;;19.10;99.90;;;;;;5081581;28;20937;-82
2022/09/07 05:19:38;;;;;;;6.93;6.37;;;18.90;99.90;;;;;;5107775;28;20505;-80
2022/09/07 05:22:24;;;;;;;8.37;7.07;;;18.70;99.90;;;;;;5096207;28;20416;-82
2022/09/07 05:25:08;;;;;;;8.70;7.30;;;18.60;99.90;;;;;;5088753;28;21857;-82
2022/09/07 05:27:52;;;;;;;14.33;6.97;;;18.50;99.90;;;;;;5092014;28;20436;-82
2022/09/07 05:30:38;;;;;;;8.43;7.00;;;18.40;99.90;;;;;;5083865;28;20507;-82
2022/09/07 05:33:22;;;;;;;6.37;5.57;;;18.20;99.90;;;;;;5106890;27;20444;-81
2022/09/07 05:36:07;;;;;;;8.40;6.53;;;18.10;99.90;;;;;;5082982;28;20440;-81
2022/09/07 05:38:53;;;;;;;8.30;7.40;;;18.10;99.90;;;;;;5078617;28;20777;-81
2022/09/07 05:41:38;;;;;;;7.10;6.40;;;17.90;99.90;;;;;;5084823;28;20412;-81
2022/09/07 05:44:22;;;;;;;12.53;7.90;;;17.70;99.90;;;;;;5088503;28;20412;-79
2022/09/07 05:47:07;;;;;;;7.30;6.53;;;17.50;99.90;;;;;;5096512;28;20948;-80
2022/09/07 05:49:53;;;;;;;9.43;8.03;;;17.50;99.90;;;;;;5121388;27;20830;-81
2022/09/07 05:52:38;;;;;;;12.23;6.90;;;17.40;99.90;;;;;;5126968;27;20403;-82
2022/09/07 05:55:23;;;;;;;10.50;7.63;;;17.50;99.90;;;;;;5098398;28;20384;-81
2022/09/07 05:58:08;;;;;;;7.47;6.70;;;17.40;99.90;;;;;;5092584;28;20463;-81
2022/09/07 06:00:59;;;;;;;9.60;8.27;;;17.40;99.90;;;;;;5087303;28;20424;-82
2022/09/07 06:03:43;;;;;;;7.23;6.70;;;17.60;99.90;;;;;;5085723;28;20423;-81
2022/09/07 06:06:28;;;;;;;8.23;7.20;;;17.60;99.90;;;;;;5087651;28;20932;-80
2022/09/07 06:09:13;;;;;;;15.80;6.23;;;17.70;99.90;;;;;;5080856;28;20813;-82
2022/09/07 06:11:58;;;;;;;9.07;7.50;;;17.90;99.90;;;;;;5091967;28;20464;-82
2022/09/07 06:14:42;;;;;;;8.90;7.73;;;18.20;99.90;;;;;;5085686;28;20474;-82
2022/09/07 06:17:28;;;;;;;7.67;7.03;;;18.20;99.90;;;;;;5081735;28;20561;-82
2022/09/07 06:20:15;;;;;;;7.00;6.30;;;18.30;99.90;;;;;;5085394;28;20412;-81
2022/09/07 06:23:00;;;;;;;10.40;9.40;;;18.40;99.90;;;;;;5083978;28;20467;-81
2022/09/07 06:25:48;;;;;;;10.73;9.37;;;18.30;99.90;;;;;;5090785;28;20469;-80
2022/09/07 06:28:35;;;;;;;10.60;8.57;;;18.20;99.90;;;;;;5080998;28;20479;-81
2022/09/07 06:31:21;;;;;;;8.73;7.73;;;18.30;99.90;;;;;;5088122;28;20438;-80
2022/09/07 06:34:06;;;;;;;11.67;9.20;;;18.30;99.90;;;;;;5089612;28;20492;-82
2022/09/07 06:36:50;;;;;;;12.33;7.60;;;18.40;99.90;;;;;;5087642;28;20574;-81
2022/09/07 06:39:35;;;;;;;9.70;6.97;;;18.50;99.90;;;;;;5078023;28;20423;-82
2022/09/07 06:42:19;;;;;;;9.77;8.77;;;18.70;99.90;;;;;;5070233;28;20857;-82
2022/09/07 06:45:05;;;;;;;13.43;8.70;;;18.80;99.90;;;;;;5083152;27;20441;-81
2022/09/07 06:47:52;;;;;;;7.60;6.50;;;18.90;99.90;;;;;;5079392;28;20545;-81
2022/09/07 06:50:38;;;;;;;8.50;7.17;;;18.80;99.90;;;;;;5082754;28;20454;-80
2022/09/07 06:53:24;;;;;;;10.53;8.27;;;18.90;99.90;;;;;;5081782;28;20916;-82
2022/09/07 06:56:12;;;;;;;7.17;6.50;;;19.10;99.90;;;;;;5085949;28;20468;-81
2022/09/07 06:58:57;;;;;;;11.53;7.97;;;19.00;99.90;;;;;;5083247;28;20815;-82
2022/09/07 07:01:41;;;;;;;9.33;7.10;;;19.10;99.90;;;;;;5081445;28;20476;-82
2022/09/07 07:04:26;;;;;;;11.07;8.50;;;19.30;99.90;;;;;;5078419;28;20814;-82
2022/09/07 07:07:12;;;;;;;12.77;8.63;;;19.30;99.90;;;;;;5079254;28;20431;-81
2022/09/07 07:09:57;;;;;;;11.30;7.50;;;19.30;99.90;;;;;;5080757;28;20970;-82
2022/09/07 07:12:41;;;;;;;10.03;8.10;;;19.30;99.90;;;;;;5078544;28;20423;-82
2022/09/07 07:15:27;;;;;;;11.87;7.27;;;19.40;99.90;;;;;;5085417;28;20467;-82
2022/09/07 07:18:13;;;;;;;9.00;8.10;;;19.70;99.90;;;;;;5080825;28;20460;-82
2022/09/07 07:21:00;;;;;;;14.57;6.53;;;19.70;99.90;;;;;;5080255;28;20423;-82
2022/09/07 07:23:49;;;;;;;7.30;6.60;;;19.80;99.90;;;;;;5078914;28;21049;-81
2022/09/07 07:26:34;;;;;;;10.20;7.17;;;20.00;99.90;;;;;;5081624;28;20939;-82
2022/09/07 07:29:19;;;;;;;7.80;6.90;;;20.20;99.90;;;;;;5080767;28;20489;-81
2022/09/07 07:32:04;;;;;;;8.80;6.10;;;20.40;99.90;;;;;;5076359;28;20476;-81
2022/09/07 07:34:48;;;;;;;10.80;6.77;;;20.70;99.90;;;;;;5081327;28;20918;-81
2022/09/07 07:37:35;;;;;;;7.37;6.47;;;20.20;99.90;;;;;;5078704;28;20481;-83
2022/09/07 07:40:20;;;;;;;9.03;7.27;;;20.30;99.90;;;;;;5079961;28;20473;-81
2022/09/07 07:43:04;;;;;;;9.60;7.50;;;20.50;99.90;;;;;;5081730;28;20458;-80
2022/09/07 07:45:49;;;;;;;7.13;5.97;;;20.20;99.90;;;;;;5082713;28;20504;-81
2022/09/07 07:48:36;;;;;;;9.33;7.07;;;20.60;99.90;;;;;;5083553;28;20485;-82
2022/09/07 07:51:21;;;;;;;8.07;7.23;;;20.90;99.90;;;;;;5080112;28;20439;-82
2022/09/07 07:54:06;;;;;;;10.57;7.77;;;20.80;99.90;;;;;;5107637;27;20945;-82
2022/09/07 07:56:51;;;;;;;17.90;6.80;;;21.00;99.90;;;;;;5080491;28;20528;-82
2022/09/07 07:59:36;;;;;;;8.47;7.23;;;21.00;99.90;;;;;;5102084;28;20979;-82
2022/09/07 08:02:21;;;;;;;8.97;6.43;;;21.20;99.90;;;;;;5080930;28;20440;-82
2022/09/07 08:05:07;;;;;;;7.37;6.67;;;21.40;99.90;;;;;;5077236;28;20427;-82
2022/09/07 08:07:52;;;;;;;8.23;6.80;;;21.50;99.90;;;;;;5074379;28;20486;-84
2022/09/07 08:10:38;;;;;;;8.70;6.20;;;21.40;99.90;;;;;;5079121;28;20555;-81
2022/09/07 08:13:22;;;;;;;9.70;6.20;;;21.60;99.90;;;;;;5083920;28;20432;-82
2022/09/07 08:16:11;;;;;;;8.93;6.27;;;21.70;99.90;;;;;;5103028;28;20466;-81
2022/09/07 08:18:57;;;;;;;8.30;5.27;;;21.90;99.90;;;;;;5104914;27;20445;-79
2022/09/07 08:21:41;;;;;;;10.20;5.10;;;21.90;99.90;;;;;;5077824;28;20421;-82
2022/09/07 08:24:26;;;;;;;6.20;5.60;;;21.90;99.90;;;;;;5077520;28;20420;-83
2022/09/07 08:27:11;;;;;;;8.73;5.40;;;22.30;99.90;;;;;;5081522;28;20423;-82
2022/09/07 08:29:56;;;;;;;5.80;5.00;;;22.50;99.90;;;;;;5080063;28;20432;-79
2022/09/07 08:32:40;;;;;;;5.87;5.13;;;22.70;99.90;;;;;;5103495;27;20436;-82
2022/09/07 08:35:24;;;;;;;7.70;6.07;;;22.70;99.90;;;;;;5080014;28;20473;-82
2022/09/07 08:38:09;;;;;;;6.27;5.67;;;22.80;99.90;;;;;;5073696;28;20865;-82
2022/09/07 08:40:55;;;;;;;5.97;5.47;;;22.80;99.90;;;;;;5084007;28;20427;-82
2022/09/07 08:44:00;;;;;;;11.20;5.50;;;23.10;99.90;;;;;;5084190;28;20411;-80
2022/09/07 08:46:58;;;;;;;5.73;4.80;;;23.20;99.90;;;;;;5091462;28;20860;-80
2022/09/07 08:50:03;;;;;;;6.17;4.57;;;23.40;99.90;;;;;;5084356;28;20505;-81
2022/09/07 08:53:14;;;;;;;5.37;4.87;;;23.70;99.90;;;;;;5082229;28;20452;-81
2022/09/07 08:56:08;;;;;;;8.13;5.10;;;24.00;99.90;;;;;;5082812;28;20528;-80
2022/09/07 08:58:53;;;;;;;4.90;4.50;;;24.10;99.90;;;;;;5078568;28;20475;-82
2022/09/07 09:01:42;;;;;;;11.13;4.97;;;24.00;99.90;;;;;;5052995;28;20429;-79
2022/09/07 09:04:28;;;;;;;7.87;7.07;;;24.20;99.90;;;;;;5057057;28;20448;-83
2022/09/07 09:07:24;;;;;;;8.43;5.10;;;24.00;99.90;;;;;;5067013;28;21999;-81
2022/09/07 09:10:20;;;;;;;4.97;4.47;;;24.50;99.90;;;;;;5068911;28;20464;-81
2022/09/07 09:13:21;;;;;;;5.23;4.83;;;24.50;99.90;;;;;;5066472;28;20535;-81
2022/09/07 09:16:36;;;;;;;6.23;4.80;;;24.70;99.90;;;;;;5055321;28;20616;-81
2022/09/07 09:19:59;;;;;;;4.30;3.90;;;25.30;99.90;;;;;;5066728;28;20437;-81
2022/09/07 09:22:44;;;;;;;3.83;3.43;;;24.90;99.90;;;;;;5067188;28;20576;-81
2022/09/07 09:25:33;;;;;;;5.30;3.60;;;25.00;99.90;;;;;;5063630;28;20491;-81
2022/09/07 09:28:18;;;;;;;6.13;4.47;;;25.10;99.90;;;;;;5066086;28;20444;-83
2022/09/07 09:31:03;;;;;;;6.97;4.40;;;25.00;99.90;;;;;;5066720;28;20944;-80
2022/09/07 09:34:22;;;;;;;6.10;4.13;;;25.70;99.90;;;;;;5084845;28;20994;-82
2022/09/07 09:37:15;;;;;;;5.60;4.50;;;26.00;99.90;;;;;;5090626;28;20475;-80
2022/09/07 09:40:05;;;;;;;5.20;3.60;;;26.40;99.90;;;;;;5041969;28;21013;-79
2022/09/07 09:43:15;;;;;;;3.93;3.53;;;26.50;99.90;;;;;;5026318;28;20437;-79
2022/09/07 09:46:02;;;;;;;6.33;3.43;;;26.60;99.90;;;;;;5033243;28;20433;-80
2022/09/07 09:48:55;;;;;;;3.23;3.03;;;27.00;99.90;;;;;;5020602;28;20466;-79
2022/09/07 09:51:45;;;;;;;4.20;3.00;;;26.50;99.90;;;;;;5039422;28;20485;-81
2022/09/07 09:54:40;;;;;;;8.67;3.30;;;26.90;99.90;;;;;;4988760;28;20511;-79
2022/09/07 09:57:57;;;;;;;3.77;3.07;;;27.20;99.90;;;;;;4991638;28;20494;-79
2022/09/07 10:01:05;;;;;;;6.27;3.40;;;27.10;99.90;;;;;;4978994;28;20475;-79
2022/09/07 10:03:53;;;;;;;3.63;2.67;;;27.00;99.90;;;;;;4959813;28;20496;-81
2022/09/07 10:06:52;;;;;;;2.80;2.47;;;26.40;99.90;;;;;;4958199;28;20440;-80
2022/09/07 10:09:39;;;;;;;2.83;2.63;;;27.10;99.90;;;;;;4975874;28;20509;-81
2022/09/07 10:12:37;;;;;;;2.60;2.40;;;27.90;99.90;;;;;;4963068;28;20486;-79
2022/09/07 10:15:34;;;;;;;3.20;2.60;;;28.30;99.90;;;;;;4949968;28;20605;-80
2022/09/07 10:18:47;;;;;;;4.40;2.20;;;27.90;99.90;;;;;;4976027;28;20528;-80
2022/09/07 10:21:33;;;;;;;4.53;2.03;;;28.40;99.90;;;;;;4958913;28;20585;-80
2022/09/07 10:24:26;;;;;;;2.60;2.10;;;28.00;99.90;;;;;;4945757;28;20698;-80
2022/09/07 10:27:36;;;;;;;3.60;2.40;;;28.40;99.90;;;;;;4932718;28;20550;-81
2022/09/07 10:30:21;;;;;;;3.73;2.87;;;27.80;99.90;;;;;;4949071;28;20471;-81
2022/09/07 10:33:42;;;;;;;3.80;3.10;;;26.70;99.90;;;;;;4950923;28;20901;-81
2022/09/07 10:36:38;;;;;;;3.00;2.50;;;26.80;99.90;;;;;;4970093;28;20437;-79
2022/09/07 10:39:29;;;;;;;5.70;2.17;;;26.90;99.90;;;;;;4948153;28;20978;-79
2022/09/07 10:42:28;;;;;;;5.20;2.70;;;27.40;99.90;;;;;;4957942;28;20468;-80
2022/09/07 10:45:38;;;;;;;4.07;2.60;;;28.40;99.90;;;;;;4965859;28;20475;-80
2022/09/07 10:48:53;;;;;;;8.60;2.50;;;28.50;99.90;;;;;;4987692;28;20442;-81
2022/09/07 10:52:09;;;;;;;2.43;2.10;;;28.70;99.90;;;;;;5048052;28;20445;-80
2022/09/07 10:55:07;;;;;;;3.80;2.30;;;28.60;99.90;;;;;;5045104;28;20465;-80
2022/09/07 10:58:23;;;;;;;2.60;1.90;;;28.10;99.90;;;;;;5056061;28;20518;-79
2022/09/07 11:01:22;;;;;;;8.27;2.60;;;28.20;99.90;;;;;;5057525;28;20432;-80
2022/09/07 11:04:26;;;;;;;3.73;2.70;;;27.90;99.90;;;;;;5042273;28;20436;-81
2022/09/07 11:07:43;;;;;;;5.53;2.77;;;27.90;99.90;;;;;;5055752;28;20465;-81
2022/09/07 11:10:45;;;;;;;2.30;2.10;;;27.90;99.90;;;;;;5065596;28;20421;-81
2022/09/07 11:13:34;;;;;;;2.50;2.23;;;28.10;99.90;;;;;;5054707;28;21370;-81
2022/09/07 11:16:24;;;;;;;2.90;2.60;;;27.90;99.90;;;;;;5059423;28;20496;-81
2022/09/07 11:19:26;;;;;;;4.03;2.07;;;27.80;99.90;;;;;;5053922;28;20526;-80
2022/09/07 11:22:26;;;;;;;6.73;2.60;;;27.60;99.90;;;;;;5089698;28;20455;-80
2022/09/07 11:25:32;;;;;;;2.83;2.50;;;27.40;99.90;;;;;;5087718;28;20419;-79
2022/09/07 11:28:34;;;;;;;4.17;2.23;;;28.40;99.90;;;;;;5091947;28;20422;-81
2022/09/07 11:31:40;;;;;;;2.37;2.17;;;28.60;99.90;;;;;;5093086;28;20422;-81
2022/09/07 11:34:32;;;;;;;2.83;2.53;;;28.70;99.90;;;;;;5094179;28;20467;-80
2022/09/07 11:37:30;;;;;;;3.40;2.63;;;29.70;99.90;;;;;;5088673;28;20546;-78
2022/09/07 11:40:29;;;;;;;3.93;2.50;;;29.70;99.90;;;;;;5079903;28;20423;-80
2022/09/07 11:43:21;;;;;;;4.27;2.83;;;30.40;99.90;;;;;;5080986;28;20459;-81
2022/09/07 11:46:16;;;;;;;2.53;2.30;;;31.50;98.70;;;;;;5074523;28;20474;-80
2022/09/07 11:49:05;;;;;;;2.80;2.42;;;32.10;96.00;;;;;;5106155;28;20202;-82
2022/09/07 11:51:56;;;;;;;2.20;2.00;;;31.00;94.70;;;;;;5087425;28;20284;-82
2022/09/07 11:54:50;;;;;;;3.33;2.63;;;31.30;95.70;;;;;;5081650;28;20184;-82
2022/09/07 11:57:55;;;;;;;3.58;2.25;;;32.90;92.50;;;;;;5089071;28;21442;-81
2022/09/07 12:00:54;;;;;;;3.97;3.17;;;33.60;90.10;;;;;;5093734;28;20548;-80
2022/09/07 12:04:15;;;;;;;4.78;2.63;;;32.40;89.30;;;;;;5088300;28;20190;-80
2022/09/07 12:07:21;;;;;;;4.35;2.83;;;31.50;91.30;;;;;;5086207;28;20248;-79
2022/09/07 12:10:36;;;;;;;3.78;2.58;;;30.90;92.40;;;;;;5088797;28;20247;-83
2022/09/07 12:13:47;;;;;;;3.42;2.50;;;30.10;93.60;;;;;;5095297;28;20236;-80
2022/09/07 12:17:15;;;;;;;5.40;2.60;;;29.50;95.50;;;;;;5117213;27;20227;-81
2022/09/07 12:20:10;;;;;;;3.00;2.70;;;29.80;96.10;;;;;;5101242;28;20214;-82
2022/09/07 12:23:03;;;;;;;6.57;3.17;;;31.40;92.90;;;;;;5113444;28;20226;-81
2022/09/07 12:25:50;;;;;;;3.88;3.15;;;32.60;91.00;;;;;;5087973;28;20184;-81
2022/09/07 12:29:03;;;;;;;6.15;2.50;;;33.60;83.70;;;;;;5112782;28;20261;-81
2022/09/07 12:31:51;;;;;;;3.15;2.22;;;34.00;79.40;;;;;;5107574;27;20293;-82
2022/09/07 12:34:45;;;;;;;5.95;2.58;;;32.20;83.60;;;;;;5102988;28;20250;-81
2022/09/07 12:37:36;;;;;;;5.00;2.30;;;30.90;89.70;;;;;;5112685;28;20259;-81
2022/09/07 12:40:57;;;;;;;5.57;3.00;;;31.20;87.40;;;;;;5116114;27;20226;-79
2022/09/07 12:44:05;;;;;;;2.92;2.55;;;31.40;86.10;;;;;;5109668;27;20298;-79
2022/09/07 12:46:54;;;;;;;5.10;2.60;;;30.00;91.00;;;;;;5107654;28;20188;-81
2022/09/07 12:49:57;;;;;;;3.53;2.63;;;31.30;86.90;;;;;;5119564;28;20242;-80
2022/09/07 12:52:47;;;;;;;4.68;2.30;;;31.60;89.00;;;;;;5114701;28;20180;-81
2022/09/07 12:55:54;;;;;;;2.53;2.33;;;33.50;84.20;;;;;;5118138;28;20262;-81
2022/09/07 12:59:05;;;;;;;6.22;2.60;;;33.60;80.50;;;;;;5100769;28;20213;-81
2022/09/07 13:02:02;;;;;;;2.85;2.00;;;32.70;78.10;;;;;;5113531;28;20177;-81
2022/09/07 13:05:08;;;;;;;2.95;2.75;;;32.60;79.60;;;;;;5103336;28;20180;-79
2022/09/07 13:08:28;;;;;;;5.10;2.65;;;33.80;77.20;;;;;;5094845;28;20243;-81
2022/09/07 13:11:33;;;;;;;6.05;2.63;;;33.00;75.70;;;;;;5097057;28;20192;-80
2022/09/07 13:14:23;;;;;;;3.45;2.67;;;32.30;77.80;;;;;;5090640;28;20185;-79
2022/09/07 13:17:27;;;;;;;6.15;2.80;;;31.70;80.10;;;;;;5092251;28;20321;-80
2022/09/07 13:20:28;;;;;;;6.45;2.65;;;31.30;82.20;;;;;;5123476;27;20235;-80
2022/09/07 13:23:23;;;;;;;2.67;2.30;;;32.60;80.30;;;;;;5093427;28;20260;-79
2022/09/07 13:26:12;;;;;;;3.00;2.35;;;33.00;77.90;;;;;;5100351;28;20195;-79
2022/09/07 13:28:59;;;;;;;5.88;2.55;;;33.00;78.10;;;;;;5096564;28;20177;-81
2022/09/07 13:32:09;;;;;;;2.90;2.65;;;32.30;78.40;;;;;;5095223;28;20178;-81
2022/09/07 13:35:23;;;;;;;7.82;3.28;;;31.70;80.70;;;;;;5100740;28;20235;-80
2022/09/07 13:38:13;;;;;;;4.20;2.88;;;31.20;85.30;;;;;;5101037;28;20209;-78
2022/09/07 13:41:11;;;;;;;3.65;2.35;;;31.80;87.20;;;;;;5085020;28;20193;-81
2022/09/07 13:43:59;;;;;;;7.05;2.50;;;32.70;83.10;;;;;;5103058;28;20188;-78
2022/09/07 13:47:01;;;;;;;4.53;3.03;;;33.00;81.10;;;;;;5125060;27;20768;-82
2022/09/07 13:50:00;;;;;;;3.03;2.78;;;32.50;82.20;;;;;;5092592;28;20181;-84
2022/09/07 13:53:14;;;;;;;6.45;2.90;;;32.00;84.10;;;;;;5088821;28;20209;-82
2022/09/07 13:56:14;;;;;;;4.80;2.45;;;33.00;82.20;;;;;;5090669;28;20546;-83
2022/09/07 13:58:58;;;;;;;3.20;2.53;;;33.50;76.80;;;;;;5093940;28;20196;-81
2022/09/07 14:01:46;;;;;;;3.45;2.67;;;33.40;75.10;;;;;;5090586;28;20636;-82
2022/09/07 14:04:39;;;;;;;3.58;2.20;;;33.10;76.70;;;;;;5104127;28;20204;-83
2022/09/07 14:07:27;;;;;;;3.60;2.65;;;33.40;78.60;;;;;;5091790;28;20217;-83
2022/09/07 14:10:18;;;;;;;6.28;3.65;;;33.90;78.30;;;;;;5098331;28;20231;-82
2022/09/07 14:13:10;;;;;;;6.13;2.53;;;34.20;77.60;;;;;;5089613;28;20235;-83
2022/09/07 14:15:55;;;;;;;3.67;2.20;;;33.70;76.20;;;;;;5099022;28;20386;-82
2022/09/07 14:18:41;;;;;;;2.28;2.13;;;32.90;79.80;;;;;;5096905;28;20294;-82
2022/09/07 14:21:26;;;;;;;6.10;2.40;;;32.70;78.30;;;;;;5100745;28;20240;-82
2022/09/07 14:24:23;;;;;;;4.35;2.80;;;32.90;79.50;;;;;;5088410;28;20177;-82
2022/09/07 14:27:30;;;;;;;3.58;2.67;;;32.50;80.40;;;;;;5095995;28;20328;-82
2022/09/07 14:30:23;;;;;;;2.75;2.55;;;31.80;81.60;;;;;;5091970;28;20188;-81
2022/09/07 14:33:19;;;;;;;7.35;2.33;;;31.30;82.30;;;;;;5100098;28;20277;-79
2022/09/07 14:36:30;;;;;;;2.78;2.50;;;30.90;83.50;;;;;;5034602;28;20193;-79
2022/09/07 14:39:21;;;;;;;3.92;2.58;;;30.60;84.40;;;;;;5038025;28;20235;-79
2022/09/07 14:42:07;;;;;;;3.90;2.75;;;30.20;85.80;;;;;;5012708;28;20255;-80
2022/09/07 14:45:30;;;;;;;3.10;2.80;;;30.00;87.40;;;;;;5019826;28;20190;-80
2022/09/07 14:48:20;;;;;;;6.67;2.73;;;29.80;88.70;;;;;;4994610;28;20854;-83
2022/09/07 14:51:06;;;;;;;5.40;2.47;;;29.80;90.60;;;;;;4978062;28;20457;-79
2022/09/07 14:53:55;;;;;;;3.10;2.10;;;30.00;90.20;;;;;;5006031;28;20307;-80